sensor_id;sensor_type;location;lat;lon;timestamp;P1;durP1;ratioP1;P2;durP2;ratioP2
34146;SDS011;20423;49.448;9.056;2022-12-11T00:01:57;146.32;;;41.83;;
34146;SDS011;20423;49.448;9.056;2022-12-11T00:04:22;115.13;;;37.08;;
34146;SDS011;20423;49.448;9.056;2022-12-11T00:07:04;120.82;;;36.78;;
34146;SDS011;20423;49.448;9.056;2022-12-11T00:09:45;119.60;;;36.53;;
34146;SDS011;20423;49.448;9.056;2022-12-11T00:12:11;108.10;;;35.13;;
34146;SDS011;20423;49.448;9.056;2022-12-11T00:18:00;101.82;;;33.25;;
34146;SDS011;20423;49.448;9.056;2022-12-11T00:20:26;115.07;;;37.22;;
34146;SDS011;20423;49.448;9.056;2022-12-11T00:22:51;188.27;;;58.83;;
34146;SDS011;20423;49.448;9.056;2022-12-11T00:25:17;227.23;;;71.05;;
34146;SDS011;20423;49.448;9.056;2022-12-11T00:27:44;149.02;;;44.78;;
34146;SDS011;20423;49.448;9.056;2022-12-11T00:30:10;131.15;;;42.80;;
34146;SDS011;20423;49.448;9.056;2022-12-11T00:32:36;118.90;;;37.17;;
34146;SDS011;20423;49.448;9.056;2022-12-11T00:35:02;114.22;;;38.33;;
34146;SDS011;20423;49.448;9.056;2022-12-11T00:37:28;123.45;;;39.53;;
34146;SDS011;20423;49.448;9.056;2022-12-11T00:40:09;129.10;;;40.92;;
34146;SDS011;20423;49.448;9.056;2022-12-11T00:42:35;126.00;;;41.25;;
34146;SDS011;20423;49.448;9.056;2022-12-11T00:45:01;133.57;;;43.42;;
34146;SDS011;20423;49.448;9.056;2022-12-11T00:47:26;133.43;;;42.92;;
34146;SDS011;20423;49.448;9.056;2022-12-11T00:49:52;138.30;;;44.58;;
34146;SDS011;20423;49.448;9.056;2022-12-11T00:52:18;143.70;;;44.58;;
34146;SDS011;20423;49.448;9.056;2022-12-11T00:54:43;148.15;;;48.28;;
34146;SDS011;20423;49.448;9.056;2022-12-11T00:57:09;146.88;;;47.85;;
34146;SDS011;20423;49.448;9.056;2022-12-11T00:59:35;156.32;;;46.83;;
34146;SDS011;20423;49.448;9.056;2022-12-11T01:02:00;152.07;;;47.45;;
34146;SDS011;20423;49.448;9.056;2022-12-11T01:04:26;154.48;;;50.97;;
34146;SDS011;20423;49.448;9.056;2022-12-11T01:06:52;163.32;;;49.60;;
34146;SDS011;20423;49.448;9.056;2022-12-11T01:09:17;155.48;;;51.40;;
34146;SDS011;20423;49.448;9.056;2022-12-11T01:12:02;147.48;;;46.25;;
34146;SDS011;20423;49.448;9.056;2022-12-11T01:14:28;158.27;;;51.25;;
34146;SDS011;20423;49.448;9.056;2022-12-11T01:17:08;158.10;;;50.85;;
34146;SDS011;20423;49.448;9.056;2022-12-11T01:19:34;144.93;;;48.25;;
34146;SDS011;20423;49.448;9.056;2022-12-11T01:22:01;131.68;;;48.45;;
34146;SDS011;20423;49.448;9.056;2022-12-11T01:24:27;137.05;;;46.28;;
34146;SDS011;20423;49.448;9.056;2022-12-11T01:26:53;151.65;;;49.20;;
34146;SDS011;20423;49.448;9.056;2022-12-11T01:29:18;163.65;;;52.83;;
34146;SDS011;20423;49.448;9.056;2022-12-11T01:31:44;141.50;;;48.30;;
34146;SDS011;20423;49.448;9.056;2022-12-11T01:34:10;138.45;;;44.20;;
34146;SDS011;20423;49.448;9.056;2022-12-11T01:36:35;140.57;;;47.28;;
34146;SDS011;20423;49.448;9.056;2022-12-11T01:39:04;115.78;;;35.33;;
34146;SDS011;20423;49.448;9.056;2022-12-11T01:41:30;112.63;;;34.83;;
34146;SDS011;20423;49.448;9.056;2022-12-11T01:46:31;112.55;;;35.70;;
34146;SDS011;20423;49.448;9.056;2022-12-11T01:48:58;145.48;;;43.50;;
34146;SDS011;20423;49.448;9.056;2022-12-11T01:51:26;120.10;;;39.42;;
34146;SDS011;20423;49.448;9.056;2022-12-11T01:53:56;106.82;;;36.75;;
34146;SDS011;20423;49.448;9.056;2022-12-11T01:56:26;127.32;;;37.30;;
34146;SDS011;20423;49.448;9.056;2022-12-11T01:58:55;112.07;;;35.95;;
34146;SDS011;20423;49.448;9.056;2022-12-11T02:01:29;126.05;;;38.05;;
34146;SDS011;20423;49.448;9.056;2022-12-11T02:04:22;125.45;;;39.55;;
34146;SDS011;20423;49.448;9.056;2022-12-11T02:06:48;128.13;;;43.40;;
34146;SDS011;20423;49.448;9.056;2022-12-11T02:09:17;133.10;;;42.72;;
34146;SDS011;20423;49.448;9.056;2022-12-11T02:11:54;117.70;;;41.00;;
34146;SDS011;20423;49.448;9.056;2022-12-11T02:14:42;118.57;;;39.67;;
34146;SDS011;20423;49.448;9.056;2022-12-11T02:20:26;120.55;;;38.58;;
34146;SDS011;20423;49.448;9.056;2022-12-11T02:25:40;113.22;;;37.70;;
34146;SDS011;20423;49.448;9.056;2022-12-11T02:33:50;128.27;;;41.90;;
34146;SDS011;20423;49.448;9.056;2022-12-11T02:36:24;131.02;;;41.53;;
34146;SDS011;20423;49.448;9.056;2022-12-11T02:38:53;135.00;;;45.05;;
34146;SDS011;20423;49.448;9.056;2022-12-11T02:41:22;117.68;;;43.40;;
34146;SDS011;20423;49.448;9.056;2022-12-11T02:43:49;117.47;;;40.90;;
34146;SDS011;20423;49.448;9.056;2022-12-11T02:46:16;109.60;;;38.95;;
34146;SDS011;20423;49.448;9.056;2022-12-11T02:48:43;122.47;;;41.90;;
34146;SDS011;20423;49.448;9.056;2022-12-11T02:51:12;126.45;;;45.65;;
34146;SDS011;20423;49.448;9.056;2022-12-11T02:53:40;119.85;;;44.67;;
34146;SDS011;20423;49.448;9.056;2022-12-11T02:56:12;117.25;;;40.30;;
34146;SDS011;20423;49.448;9.056;2022-12-11T02:58:45;106.18;;;38.40;;
34146;SDS011;20423;49.448;9.056;2022-12-11T03:01:14;119.07;;;41.30;;
34146;SDS011;20423;49.448;9.056;2022-12-11T03:03:40;106.22;;;38.30;;
34146;SDS011;20423;49.448;9.056;2022-12-11T03:06:07;133.70;;;43.30;;
34146;SDS011;20423;49.448;9.056;2022-12-11T03:08:35;116.55;;;42.60;;
34146;SDS011;20423;49.448;9.056;2022-12-11T03:11:01;122.15;;;42.58;;
34146;SDS011;20423;49.448;9.056;2022-12-11T03:13:27;124.75;;;44.65;;
34146;SDS011;20423;49.448;9.056;2022-12-11T03:15:57;123.55;;;42.88;;
34146;SDS011;20423;49.448;9.056;2022-12-11T03:19:01;108.97;;;39.35;;
34146;SDS011;20423;49.448;9.056;2022-12-11T03:21:30;104.45;;;37.40;;
34146;SDS011;20423;49.448;9.056;2022-12-11T03:26:36;103.25;;;35.33;;
34146;SDS011;20423;49.448;9.056;2022-12-11T03:29:10;106.75;;;35.53;;
34146;SDS011;20423;49.448;9.056;2022-12-11T03:31:55;102.10;;;35.63;;
34146;SDS011;20423;49.448;9.056;2022-12-11T03:37:07;90.75;;;31.33;;
34146;SDS011;20423;49.448;9.056;2022-12-11T03:39:35;84.88;;;28.73;;
34146;SDS011;20423;49.448;9.056;2022-12-11T03:42:04;85.15;;;29.73;;
34146;SDS011;20423;49.448;9.056;2022-12-11T03:47:54;84.65;;;29.33;;
34146;SDS011;20423;49.448;9.056;2022-12-11T03:50:21;79.20;;;28.08;;
34146;SDS011;20423;49.448;9.056;2022-12-11T03:52:50;76.47;;;29.58;;
34146;SDS011;20423;49.448;9.056;2022-12-11T03:55:17;92.43;;;32.92;;
34146;SDS011;20423;49.448;9.056;2022-12-11T03:57:45;92.05;;;30.13;;
34146;SDS011;20423;49.448;9.056;2022-12-11T04:00:13;80.10;;;29.70;;
34146;SDS011;20423;49.448;9.056;2022-12-11T04:02:47;87.15;;;31.48;;
34146;SDS011;20423;49.448;9.056;2022-12-11T04:05:33;80.68;;;28.20;;
34146;SDS011;20423;49.448;9.056;2022-12-11T04:07:59;85.03;;;31.23;;
34146;SDS011;20423;49.448;9.056;2022-12-11T04:10:25;79.10;;;28.25;;
34146;SDS011;20423;49.448;9.056;2022-12-11T04:12:52;88.93;;;31.38;;
34146;SDS011;20423;49.448;9.056;2022-12-11T04:15:18;79.43;;;29.00;;
34146;SDS011;20423;49.448;9.056;2022-12-11T04:17:44;81.70;;;27.98;;
34146;SDS011;20423;49.448;9.056;2022-12-11T04:20:48;89.65;;;30.88;;
34146;SDS011;20423;49.448;9.056;2022-12-11T04:23:35;79.20;;;29.42;;
34146;SDS011;20423;49.448;9.056;2022-12-11T04:26:19;80.15;;;28.75;;
34146;SDS011;20423;49.448;9.056;2022-12-11T04:28:45;71.25;;;27.38;;
34146;SDS011;20423;49.448;9.056;2022-12-11T04:31:13;82.15;;;30.67;;
34146;SDS011;20423;49.448;9.056;2022-12-11T04:33:44;70.95;;;28.40;;
34146;SDS011;20423;49.448;9.056;2022-12-11T04:36:10;79.60;;;29.52;;
34146;SDS011;20423;49.448;9.056;2022-12-11T04:38:37;99.72;;;36.63;;
34146;SDS011;20423;49.448;9.056;2022-12-11T04:41:15;93.75;;;36.30;;
34146;SDS011;20423;49.448;9.056;2022-12-11T04:43:41;92.45;;;37.60;;
34146;SDS011;20423;49.448;9.056;2022-12-11T04:46:14;95.25;;;36.55;;
34146;SDS011;20423;49.448;9.056;2022-12-11T04:48:45;97.05;;;36.97;;
34146;SDS011;20423;49.448;9.056;2022-12-11T04:51:20;101.57;;;38.90;;
34146;SDS011;20423;49.448;9.056;2022-12-11T04:53:46;110.38;;;42.17;;
34146;SDS011;20423;49.448;9.056;2022-12-11T04:56:13;106.97;;;41.15;;
34146;SDS011;20423;49.448;9.056;2022-12-11T04:58:40;107.35;;;40.25;;
34146;SDS011;20423;49.448;9.056;2022-12-11T05:01:07;107.38;;;39.47;;
34146;SDS011;20423;49.448;9.056;2022-12-11T05:03:33;106.70;;;41.13;;
34146;SDS011;20423;49.448;9.056;2022-12-11T05:05:59;113.50;;;40.75;;
34146;SDS011;20423;49.448;9.056;2022-12-11T05:08:25;104.03;;;40.72;;
34146;SDS011;20423;49.448;9.056;2022-12-11T05:10:57;104.15;;;37.58;;
34146;SDS011;20423;49.448;9.056;2022-12-11T05:13:25;102.30;;;37.90;;
34146;SDS011;20423;49.448;9.056;2022-12-11T05:15:52;108.18;;;37.92;;
34146;SDS011;20423;49.448;9.056;2022-12-11T05:18:18;97.10;;;33.45;;
34146;SDS011;20423;49.448;9.056;2022-12-11T05:20:44;99.30;;;35.83;;
34146;SDS011;20423;49.448;9.056;2022-12-11T05:23:18;98.63;;;35.47;;
34146;SDS011;20423;49.448;9.056;2022-12-11T05:25:49;88.18;;;34.30;;
34146;SDS011;20423;49.448;9.056;2022-12-11T05:28:20;102.88;;;35.55;;
34146;SDS011;20423;49.448;9.056;2022-12-11T05:30:46;95.57;;;35.22;;
34146;SDS011;20423;49.448;9.056;2022-12-11T05:33:12;97.75;;;36.58;;
34146;SDS011;20423;49.448;9.056;2022-12-11T05:35:38;88.43;;;35.38;;
34146;SDS011;20423;49.448;9.056;2022-12-11T05:38:10;95.30;;;36.97;;
34146;SDS011;20423;49.448;9.056;2022-12-11T05:40:35;101.47;;;36.53;;
34146;SDS011;20423;49.448;9.056;2022-12-11T05:43:01;100.03;;;35.85;;
34146;SDS011;20423;49.448;9.056;2022-12-11T05:45:27;90.78;;;35.67;;
34146;SDS011;20423;49.448;9.056;2022-12-11T05:47:52;98.22;;;37.45;;
34146;SDS011;20423;49.448;9.056;2022-12-11T05:50:18;95.55;;;35.95;;
34146;SDS011;20423;49.448;9.056;2022-12-11T05:52:44;110.05;;;37.72;;
34146;SDS011;20423;49.448;9.056;2022-12-11T05:55:09;95.32;;;36.50;;
34146;SDS011;20423;49.448;9.056;2022-12-11T05:57:35;108.07;;;37.65;;
34146;SDS011;20423;49.448;9.056;2022-12-11T06:00:00;100.47;;;36.05;;
34146;SDS011;20423;49.448;9.056;2022-12-11T06:02:26;106.90;;;38.17;;
34146;SDS011;20423;49.448;9.056;2022-12-11T06:04:52;103.10;;;37.40;;
34146;SDS011;20423;49.448;9.056;2022-12-11T06:07:18;99.80;;;37.35;;
34146;SDS011;20423;49.448;9.056;2022-12-11T06:09:43;99.03;;;37.63;;
34146;SDS011;20423;49.448;9.056;2022-12-11T06:12:09;96.25;;;37.35;;
34146;SDS011;20423;49.448;9.056;2022-12-11T06:14:35;111.97;;;39.15;;
34146;SDS011;20423;49.448;9.056;2022-12-11T06:17:00;117.10;;;39.13;;
34146;SDS011;20423;49.448;9.056;2022-12-11T06:19:26;119.90;;;39.65;;
34146;SDS011;20423;49.448;9.056;2022-12-11T06:21:52;119.30;;;43.42;;
34146;SDS011;20423;49.448;9.056;2022-12-11T06:24:17;112.65;;;41.90;;
34146;SDS011;20423;49.448;9.056;2022-12-11T06:26:43;115.43;;;43.47;;
34146;SDS011;20423;49.448;9.056;2022-12-11T06:29:08;112.53;;;40.80;;
34146;SDS011;20423;49.448;9.056;2022-12-11T06:31:34;123.25;;;43.13;;
34146;SDS011;20423;49.448;9.056;2022-12-11T06:34:00;120.28;;;41.58;;
34146;SDS011;20423;49.448;9.056;2022-12-11T06:36:25;119.80;;;42.47;;
34146;SDS011;20423;49.448;9.056;2022-12-11T06:38:51;116.78;;;42.35;;
34146;SDS011;20423;49.448;9.056;2022-12-11T06:41:19;110.80;;;42.88;;
34146;SDS011;20423;49.448;9.056;2022-12-11T06:43:45;116.32;;;42.22;;
34146;SDS011;20423;49.448;9.056;2022-12-11T06:46:12;120.55;;;43.03;;
34146;SDS011;20423;49.448;9.056;2022-12-11T06:48:42;136.95;;;44.80;;
34146;SDS011;20423;49.448;9.056;2022-12-11T06:51:09;124.78;;;44.53;;
34146;SDS011;20423;49.448;9.056;2022-12-11T06:53:37;114.28;;;41.55;;
34146;SDS011;20423;49.448;9.056;2022-12-11T06:56:03;123.38;;;41.53;;
34146;SDS011;20423;49.448;9.056;2022-12-11T06:58:32;142.98;;;48.22;;
34146;SDS011;20423;49.448;9.056;2022-12-11T07:00:59;135.50;;;45.95;;
34146;SDS011;20423;49.448;9.056;2022-12-11T07:03:26;148.50;;;48.90;;
34146;SDS011;20423;49.448;9.056;2022-12-11T07:05:52;144.43;;;51.33;;
34146;SDS011;20423;49.448;9.056;2022-12-11T07:08:17;147.55;;;52.00;;
34146;SDS011;20423;49.448;9.056;2022-12-11T07:10:43;148.82;;;53.65;;
34146;SDS011;20423;49.448;9.056;2022-12-11T07:13:09;167.15;;;53.38;;
34146;SDS011;20423;49.448;9.056;2022-12-11T07:15:35;155.88;;;54.88;;
34146;SDS011;20423;49.448;9.056;2022-12-11T07:18:01;153.93;;;56.88;;
34146;SDS011;20423;49.448;9.056;2022-12-11T07:20:26;227.63;;;88.28;;
34146;SDS011;20423;49.448;9.056;2022-12-11T07:22:52;335.48;;;119.07;;
34146;SDS011;20423;49.448;9.056;2022-12-11T07:25:18;220.90;;;81.10;;
34146;SDS011;20423;49.448;9.056;2022-12-11T07:27:44;243.30;;;90.57;;
34146;SDS011;20423;49.448;9.056;2022-12-11T07:30:10;256.83;;;89.88;;
34146;SDS011;20423;49.448;9.056;2022-12-11T07:32:37;188.60;;;68.40;;
34146;SDS011;20423;49.448;9.056;2022-12-11T07:35:03;159.07;;;54.17;;
34146;SDS011;20423;49.448;9.056;2022-12-11T07:37:29;145.02;;;52.70;;
34146;SDS011;20423;49.448;9.056;2022-12-11T07:39:55;153.73;;;56.85;;
34146;SDS011;20423;49.448;9.056;2022-12-11T07:42:20;162.18;;;56.55;;
34146;SDS011;20423;49.448;9.056;2022-12-11T07:44:47;156.40;;;55.30;;
34146;SDS011;20423;49.448;9.056;2022-12-11T07:47:12;161.95;;;56.75;;
34146;SDS011;20423;49.448;9.056;2022-12-11T07:49:38;170.23;;;53.58;;
34146;SDS011;20423;49.448;9.056;2022-12-11T07:52:04;155.35;;;53.75;;
34146;SDS011;20423;49.448;9.056;2022-12-11T07:54:29;282.13;;;55.35;;
34146;SDS011;20423;49.448;9.056;2022-12-11T07:57:13;155.75;;;51.15;;
34146;SDS011;20423;49.448;9.056;2022-12-11T07:59:57;286.45;;;53.33;;
34146;SDS011;20423;49.448;9.056;2022-12-11T08:02:22;366.05;;;57.75;;
34146;SDS011;20423;49.448;9.056;2022-12-11T08:04:48;158.10;;;49.88;;
34146;SDS011;20423;49.448;9.056;2022-12-11T08:07:14;158.80;;;49.75;;
34146;SDS011;20423;49.448;9.056;2022-12-11T08:09:40;149.00;;;47.35;;
34146;SDS011;20423;49.448;9.056;2022-12-11T08:12:05;180.85;;;53.75;;
34146;SDS011;20423;49.448;9.056;2022-12-11T08:14:31;148.77;;;46.85;;
34146;SDS011;20423;49.448;9.056;2022-12-11T08:16:57;127.10;;;44.63;;
34146;SDS011;20423;49.448;9.056;2022-12-11T08:19:24;146.75;;;46.60;;
34146;SDS011;20423;49.448;9.056;2022-12-11T08:21:50;132.68;;;45.35;;
34146;SDS011;20423;49.448;9.056;2022-12-11T08:24:15;130.27;;;43.67;;
34146;SDS011;20423;49.448;9.056;2022-12-11T08:26:44;132.45;;;44.58;;
34146;SDS011;20423;49.448;9.056;2022-12-11T08:29:11;158.52;;;51.33;;
34146;SDS011;20423;49.448;9.056;2022-12-11T08:31:37;161.15;;;57.08;;
34146;SDS011;20423;49.448;9.056;2022-12-11T08:34:04;146.77;;;50.70;;
34146;SDS011;20423;49.448;9.056;2022-12-11T08:36:30;171.60;;;55.72;;
34146;SDS011;20423;49.448;9.056;2022-12-11T08:38:56;145.90;;;52.40;;
34146;SDS011;20423;49.448;9.056;2022-12-11T08:41:24;141.60;;;52.80;;
34146;SDS011;20423;49.448;9.056;2022-12-11T08:43:52;127.55;;;49.88;;
34146;SDS011;20423;49.448;9.056;2022-12-11T08:46:19;130.43;;;49.42;;
34146;SDS011;20423;49.448;9.056;2022-12-11T08:48:50;134.95;;;47.78;;
34146;SDS011;20423;49.448;9.056;2022-12-11T08:51:17;143.60;;;51.60;;
34146;SDS011;20423;49.448;9.056;2022-12-11T08:53:44;152.13;;;54.10;;
34146;SDS011;20423;49.448;9.056;2022-12-11T08:56:11;133.32;;;51.53;;
34146;SDS011;20423;49.448;9.056;2022-12-11T08:58:38;114.28;;;40.15;;
34146;SDS011;20423;49.448;9.056;2022-12-11T09:01:06;98.53;;;37.97;;
34146;SDS011;20423;49.448;9.056;2022-12-11T09:03:33;126.82;;;49.55;;
34146;SDS011;20423;49.448;9.056;2022-12-11T09:06:02;120.20;;;48.15;;
34146;SDS011;20423;49.448;9.056;2022-12-11T09:08:29;106.72;;;43.33;;
34146;SDS011;20423;49.448;9.056;2022-12-11T09:10:54;100.82;;;39.72;;
34146;SDS011;20423;49.448;9.056;2022-12-11T09:13:20;90.10;;;37.10;;
34146;SDS011;20423;49.448;9.056;2022-12-11T09:15:46;84.72;;;35.92;;
34146;SDS011;20423;49.448;9.056;2022-12-11T09:18:11;90.40;;;36.10;;
34146;SDS011;20423;49.448;9.056;2022-12-11T09:20:37;81.95;;;33.63;;
34146;SDS011;20423;49.448;9.056;2022-12-11T09:23:02;109.53;;;40.10;;
34146;SDS011;20423;49.448;9.056;2022-12-11T09:25:28;82.55;;;32.40;;
34146;SDS011;20423;49.448;9.056;2022-12-11T09:27:54;79.18;;;29.10;;
34146;SDS011;20423;49.448;9.056;2022-12-11T09:30:20;66.68;;;26.60;;
34146;SDS011;20423;49.448;9.056;2022-12-11T09:32:48;75.47;;;31.00;;
34146;SDS011;20423;49.448;9.056;2022-12-11T09:35:15;71.07;;;30.15;;
34146;SDS011;20423;49.448;9.056;2022-12-11T09:37:40;96.80;;;33.40;;
34146;SDS011;20423;49.448;9.056;2022-12-11T09:40:08;101.75;;;35.58;;
34146;SDS011;20423;49.448;9.056;2022-12-11T09:42:43;88.65;;;33.45;;
34146;SDS011;20423;49.448;9.056;2022-12-11T09:45:17;106.07;;;36.15;;
34146;SDS011;20423;49.448;9.056;2022-12-11T09:50:30;68.93;;;30.02;;
34146;SDS011;20423;49.448;9.056;2022-12-11T09:59:01;202.70;;;70.88;;
34146;SDS011;20423;49.448;9.056;2022-12-11T10:09:54;43.95;;;19.35;;
34146;SDS011;20423;49.448;9.056;2022-12-11T10:15:38;47.15;;;22.52;;
34146;SDS011;20423;49.448;9.056;2022-12-11T10:18:14;58.55;;;26.50;;
34146;SDS011;20423;49.448;9.056;2022-12-11T10:20:43;54.47;;;23.85;;
34146;SDS011;20423;49.448;9.056;2022-12-11T10:26:17;105.68;;;40.35;;
34146;SDS011;20423;49.448;9.056;2022-12-11T10:28:44;63.75;;;28.13;;
34146;SDS011;20423;49.448;9.056;2022-12-11T10:31:17;70.50;;;30.63;;
34146;SDS011;20423;49.448;9.056;2022-12-11T10:33:54;119.60;;;44.72;;
34146;SDS011;20423;49.448;9.056;2022-12-11T10:36:28;91.38;;;38.28;;
34146;SDS011;20423;49.448;9.056;2022-12-11T10:38:56;69.28;;;29.88;;
34146;SDS011;20423;49.448;9.056;2022-12-11T10:41:41;118.63;;;49.15;;
34146;SDS011;20423;49.448;9.056;2022-12-11T10:44:18;79.28;;;33.05;;
34146;SDS011;20423;49.448;9.056;2022-12-11T10:46:46;65.15;;;26.73;;
34146;SDS011;20423;49.448;9.056;2022-12-11T10:49:21;78.13;;;31.33;;
34146;SDS011;20423;49.448;9.056;2022-12-11T10:55:05;59.97;;;24.67;;
34146;SDS011;20423;49.448;9.056;2022-12-11T10:57:43;56.25;;;25.25;;
34146;SDS011;20423;49.448;9.056;2022-12-11T11:02:54;57.25;;;22.92;;
34146;SDS011;20423;49.448;9.056;2022-12-11T11:05:31;58.50;;;25.95;;
34146;SDS011;20423;49.448;9.056;2022-12-11T11:08:15;57.67;;;24.27;;
34146;SDS011;20423;49.448;9.056;2022-12-11T11:13:26;46.88;;;20.48;;
34146;SDS011;20423;49.448;9.056;2022-12-11T11:16:04;51.50;;;23.58;;
34146;SDS011;20423;49.448;9.056;2022-12-11T11:18:33;46.35;;;20.58;;
34146;SDS011;20423;49.448;9.056;2022-12-11T11:21:00;39.63;;;16.05;;
34146;SDS011;20423;49.448;9.056;2022-12-11T11:23:26;39.25;;;15.98;;
34146;SDS011;20423;49.448;9.056;2022-12-11T11:25:57;35.85;;;16.23;;
34146;SDS011;20423;49.448;9.056;2022-12-11T11:28:33;40.83;;;18.83;;
34146;SDS011;20423;49.448;9.056;2022-12-11T11:31:02;50.00;;;18.23;;
34146;SDS011;20423;49.448;9.056;2022-12-11T11:33:34;54.90;;;22.63;;
34146;SDS011;20423;49.448;9.056;2022-12-11T11:36:05;41.33;;;17.88;;
34146;SDS011;20423;49.448;9.056;2022-12-11T11:38:36;45.90;;;18.98;;
34146;SDS011;20423;49.448;9.056;2022-12-11T11:41:26;41.08;;;18.80;;
34146;SDS011;20423;49.448;9.056;2022-12-11T11:44:14;44.72;;;19.75;;
34146;SDS011;20423;49.448;9.056;2022-12-11T11:46:48;47.95;;;19.85;;
34146;SDS011;20423;49.448;9.056;2022-12-11T11:52:14;54.88;;;21.52;;
34146;SDS011;20423;49.448;9.056;2022-12-11T11:54:49;57.42;;;23.90;;
34146;SDS011;20423;49.448;9.056;2022-12-11T11:57:42;49.53;;;20.67;;
34146;SDS011;20423;49.448;9.056;2022-12-11T12:00:17;54.03;;;22.50;;
34146;SDS011;20423;49.448;9.056;2022-12-11T12:02:47;52.35;;;22.50;;
34146;SDS011;20423;49.448;9.056;2022-12-11T12:05:21;57.70;;;26.20;;
34146;SDS011;20423;49.448;9.056;2022-12-11T12:10:59;55.78;;;24.85;;
34146;SDS011;20423;49.448;9.056;2022-12-11T12:16:33;49.60;;;22.38;;
34146;SDS011;20423;49.448;9.056;2022-12-11T12:19:13;48.63;;;22.08;;
34146;SDS011;20423;49.448;9.056;2022-12-11T12:21:47;47.40;;;21.45;;
34146;SDS011;20423;49.448;9.056;2022-12-11T12:27:27;41.00;;;20.45;;
34146;SDS011;20423;49.448;9.056;2022-12-11T12:30:13;48.97;;;20.80;;
34146;SDS011;20423;49.448;9.056;2022-12-11T12:35:34;42.63;;;20.38;;
34146;SDS011;20423;49.448;9.056;2022-12-11T12:38:23;53.20;;;22.67;;
34146;SDS011;20423;49.448;9.056;2022-12-11T12:49:02;46.95;;;21.48;;
34146;SDS011;20423;49.448;9.056;2022-12-11T12:51:31;47.72;;;22.15;;
34146;SDS011;20423;49.448;9.056;2022-12-11T12:54:01;57.50;;;24.00;;
34146;SDS011;20423;49.448;9.056;2022-12-11T12:56:28;55.15;;;26.05;;
34146;SDS011;20423;49.448;9.056;2022-12-11T12:59:02;112.97;;;51.53;;
34146;SDS011;20423;49.448;9.056;2022-12-11T13:01:28;76.45;;;36.60;;
34146;SDS011;20423;49.448;9.056;2022-12-11T13:03:59;53.42;;;23.90;;
34146;SDS011;20423;49.448;9.056;2022-12-11T13:06:34;48.38;;;23.77;;
34146;SDS011;20423;49.448;9.056;2022-12-11T13:09:14;56.22;;;24.35;;
34146;SDS011;20423;49.448;9.056;2022-12-11T13:11:46;51.97;;;26.20;;
34146;SDS011;20423;49.448;9.056;2022-12-11T13:16:50;50.50;;;21.75;;
34146;SDS011;20423;49.448;9.056;2022-12-11T13:21:58;43.05;;;19.10;;
34146;SDS011;20423;49.448;9.056;2022-12-11T13:24:45;46.22;;;20.45;;
34146;SDS011;20423;49.448;9.056;2022-12-11T13:30:03;41.78;;;17.35;;
34146;SDS011;20423;49.448;9.056;2022-12-11T13:32:30;42.35;;;19.15;;
34146;SDS011;20423;49.448;9.056;2022-12-11T13:34:58;43.10;;;19.35;;
34146;SDS011;20423;49.448;9.056;2022-12-11T13:37:33;39.85;;;17.98;;
34146;SDS011;20423;49.448;9.056;2022-12-11T13:40:04;40.10;;;17.73;;
34146;SDS011;20423;49.448;9.056;2022-12-11T13:42:49;39.55;;;19.38;;
34146;SDS011;20423;49.448;9.056;2022-12-11T13:46:04;44.50;;;21.00;;
34146;SDS011;20423;49.448;9.056;2022-12-11T13:48:21;42.35;;;20.55;;
34146;SDS011;20423;49.448;9.056;2022-12-11T13:50:53;57.08;;;24.02;;
34146;SDS011;20423;49.448;9.056;2022-12-11T13:53:20;59.90;;;27.95;;
34146;SDS011;20423;49.448;9.056;2022-12-11T13:58:21;60.45;;;29.33;;
34146;SDS011;20423;49.448;9.056;2022-12-11T14:03:54;56.40;;;29.83;;
34146;SDS011;20423;49.448;9.056;2022-12-11T14:06:23;58.20;;;23.52;;
34146;SDS011;20423;49.448;9.056;2022-12-11T14:08:52;69.43;;;28.40;;
34146;SDS011;20423;49.448;9.056;2022-12-11T14:11:29;79.97;;;30.55;;
34146;SDS011;20423;49.448;9.056;2022-12-11T14:13:59;81.28;;;31.33;;
34146;SDS011;20423;49.448;9.056;2022-12-11T14:16:27;77.45;;;31.15;;
34146;SDS011;20423;49.448;9.056;2022-12-11T14:19:01;81.70;;;31.30;;
34146;SDS011;20423;49.448;9.056;2022-12-11T14:21:30;79.30;;;30.10;;
34146;SDS011;20423;49.448;9.056;2022-12-11T14:23:57;63.42;;;26.08;;
34146;SDS011;20423;49.448;9.056;2022-12-11T14:26:25;68.95;;;27.23;;
34146;SDS011;20423;49.448;9.056;2022-12-11T14:28:52;63.40;;;24.58;;
34146;SDS011;20423;49.448;9.056;2022-12-11T14:31:28;75.15;;;29.80;;
34146;SDS011;20423;49.448;9.056;2022-12-11T14:34:02;64.90;;;25.98;;
34146;SDS011;20423;49.448;9.056;2022-12-11T14:36:35;72.53;;;28.25;;
34146;SDS011;20423;49.448;9.056;2022-12-11T14:39:12;72.38;;;27.58;;
34146;SDS011;20423;49.448;9.056;2022-12-11T14:42:08;71.03;;;27.10;;
34146;SDS011;20423;49.448;9.056;2022-12-11T14:44:42;77.53;;;27.80;;
34146;SDS011;20423;49.448;9.056;2022-12-11T14:47:19;70.80;;;27.35;;
34146;SDS011;20423;49.448;9.056;2022-12-11T14:52:19;70.00;;;28.13;;
34146;SDS011;20423;49.448;9.056;2022-12-11T14:54:55;83.45;;;28.17;;
34146;SDS011;20423;49.448;9.056;2022-12-11T14:57:29;60.63;;;25.88;;
34146;SDS011;20423;49.448;9.056;2022-12-11T14:59:57;72.90;;;27.40;;
34146;SDS011;20423;49.448;9.056;2022-12-11T15:02:33;63.67;;;26.98;;
34146;SDS011;20423;49.448;9.056;2022-12-11T15:05:03;68.15;;;27.75;;
34146;SDS011;20423;49.448;9.056;2022-12-11T15:07:29;74.55;;;28.33;;
34146;SDS011;20423;49.448;9.056;2022-12-11T15:09:55;68.00;;;25.48;;
34146;SDS011;20423;49.448;9.056;2022-12-11T15:12:33;66.30;;;23.65;;
34146;SDS011;20423;49.448;9.056;2022-12-11T15:15:00;57.78;;;23.10;;
34146;SDS011;20423;49.448;9.056;2022-12-11T15:17:29;68.53;;;25.38;;
34146;SDS011;20423;49.448;9.056;2022-12-11T15:19:55;58.35;;;21.25;;
34146;SDS011;20423;49.448;9.056;2022-12-11T15:22:32;76.53;;;25.70;;
34146;SDS011;20423;49.448;9.056;2022-12-11T15:24:59;78.22;;;27.23;;
34146;SDS011;20423;49.448;9.056;2022-12-11T15:30:53;76.35;;;28.35;;
34146;SDS011;20423;49.448;9.056;2022-12-11T15:33:21;69.90;;;27.67;;
34146;SDS011;20423;49.448;9.056;2022-12-11T15:38:50;71.57;;;28.33;;
34146;SDS011;20423;49.448;9.056;2022-12-11T15:41:17;106.85;;;41.60;;
34146;SDS011;20423;49.448;9.056;2022-12-11T15:43:51;129.23;;;42.92;;
34146;SDS011;20423;49.448;9.056;2022-12-11T15:46:18;138.07;;;48.33;;
34146;SDS011;20423;49.448;9.056;2022-12-11T15:48:48;105.35;;;39.53;;
34146;SDS011;20423;49.448;9.056;2022-12-11T15:51:15;95.68;;;38.35;;
34146;SDS011;20423;49.448;9.056;2022-12-11T15:53:42;85.60;;;36.88;;
34146;SDS011;20423;49.448;9.056;2022-12-11T15:56:09;66.68;;;26.63;;
34146;SDS011;20423;49.448;9.056;2022-12-11T16:02:13;83.50;;;34.90;;
34146;SDS011;20423;49.448;9.056;2022-12-11T16:07:39;72.60;;;29.27;;
34146;SDS011;20423;49.448;9.056;2022-12-11T16:10:05;84.40;;;32.78;;
34146;SDS011;20423;49.448;9.056;2022-12-11T16:12:32;91.65;;;34.72;;
34146;SDS011;20423;49.448;9.056;2022-12-11T16:14:58;79.07;;;30.02;;
34146;SDS011;20423;49.448;9.056;2022-12-11T16:17:23;109.88;;;40.65;;
34146;SDS011;20423;49.448;9.056;2022-12-11T16:19:49;74.18;;;27.27;;
34146;SDS011;20423;49.448;9.056;2022-12-11T16:22:15;72.07;;;26.92;;